Terminal Aerodrome Forecast
Issued by NWS

Home | Current Version | Previous Version | Text Only | Print | Product List | Glossary On
Versions: 1 2 3 4 5 6 7 8 9 10 11 12 13 14 15 16 17 18 19 20 21 22 23 24 25 26 27 28 29 30 31 32 33 34 35 36
000
FTAK31 PAFA 222340
TAFATA
TAF
PATA 222340Z 2300/2324 09006KT P6SM -SHRA OVC035
     FM231000 06009KT 2SM BR VCSH BKN008 BKN025 OVC035
     FM231800 09010KT P6SM BKN060 OVC080=

USA.gov is the U.S. government's official web portal to all federal, state and local government web resources and services.